sensor_id;sensor_type;location;lat;lon;timestamp;P1;durP1;ratioP1;P2;durP2;ratioP2
19446;SDS011;9862;49.462;11.054;2022-11-23T00:01:19;6.15;;;2.90;;
19446;SDS011;9862;49.462;11.054;2022-11-23T00:03:47;5.93;;;3.30;;
19446;SDS011;9862;49.462;11.054;2022-11-23T00:06:17;8.02;;;3.15;;
19446;SDS011;9862;49.462;11.054;2022-11-23T00:08:45;4.53;;;2.55;;
19446;SDS011;9862;49.462;11.054;2022-11-23T00:11:13;6.75;;;3.17;;
19446;SDS011;9862;49.462;11.054;2022-11-23T00:13:40;8.23;;;3.20;;
19446;SDS011;9862;49.462;11.054;2022-11-23T00:16:08;7.75;;;3.08;;
19446;SDS011;9862;49.462;11.054;2022-11-23T00:18:37;6.13;;;3.40;;
19446;SDS011;9862;49.462;11.054;2022-11-23T00:21:04;6.05;;;2.95;;
19446;SDS011;9862;49.462;11.054;2022-11-23T00:23:34;8.45;;;3.53;;
19446;SDS011;9862;49.462;11.054;2022-11-23T00:26:01;4.68;;;2.72;;
19446;SDS011;9862;49.462;11.054;2022-11-23T00:28:27;5.25;;;3.05;;
19446;SDS011;9862;49.462;11.054;2022-11-23T00:30:54;7.57;;;3.25;;
19446;SDS011;9862;49.462;11.054;2022-11-23T00:33:21;6.72;;;3.30;;
19446;SDS011;9862;49.462;11.054;2022-11-23T00:35:57;6.95;;;3.50;;
19446;SDS011;9862;49.462;11.054;2022-11-23T00:38:24;5.05;;;2.75;;
19446;SDS011;9862;49.462;11.054;2022-11-23T00:40:57;9.82;;;3.60;;
19446;SDS011;9862;49.462;11.054;2022-11-23T00:43:25;4.32;;;2.97;;
19446;SDS011;9862;49.462;11.054;2022-11-23T00:46:00;7.60;;;3.60;;
19446;SDS011;9862;49.462;11.054;2022-11-23T00:48:28;7.78;;;3.40;;
19446;SDS011;9862;49.462;11.054;2022-11-23T00:50:55;10.07;;;3.45;;
19446;SDS011;9862;49.462;11.054;2022-11-23T00:53:22;6.28;;;3.30;;
19446;SDS011;9862;49.462;11.054;2022-11-23T00:55:49;7.65;;;3.33;;
19446;SDS011;9862;49.462;11.054;2022-11-23T00:58:18;8.30;;;3.38;;
19446;SDS011;9862;49.462;11.054;2022-11-23T01:00:45;5.03;;;3.28;;
19446;SDS011;9862;49.462;11.054;2022-11-23T01:03:12;8.63;;;3.17;;
19446;SDS011;9862;49.462;11.054;2022-11-23T01:05:38;3.45;;;2.63;;
19446;SDS011;9862;49.462;11.054;2022-11-23T01:08:05;8.65;;;2.85;;
19446;SDS011;9862;49.462;11.054;2022-11-23T01:10:32;7.85;;;2.90;;
19446;SDS011;9862;49.462;11.054;2022-11-23T01:12:59;9.70;;;3.35;;
19446;SDS011;9862;49.462;11.054;2022-11-23T01:15:27;5.13;;;2.97;;
19446;SDS011;9862;49.462;11.054;2022-11-23T01:17:54;6.43;;;3.17;;
19446;SDS011;9862;49.462;11.054;2022-11-23T01:20:20;9.52;;;3.75;;
19446;SDS011;9862;49.462;11.054;2022-11-23T01:22:47;6.60;;;3.00;;
19446;SDS011;9862;49.462;11.054;2022-11-23T01:25:16;8.25;;;3.53;;
19446;SDS011;9862;49.462;11.054;2022-11-23T01:27:43;6.80;;;3.35;;
19446;SDS011;9862;49.462;11.054;2022-11-23T01:30:10;5.30;;;3.17;;
19446;SDS011;9862;49.462;11.054;2022-11-23T01:32:39;7.00;;;3.25;;
19446;SDS011;9862;49.462;11.054;2022-11-23T01:35:05;7.10;;;3.78;;
19446;SDS011;9862;49.462;11.054;2022-11-23T01:37:32;7.15;;;3.50;;
19446;SDS011;9862;49.462;11.054;2022-11-23T01:39:59;5.10;;;3.08;;
19446;SDS011;9862;49.462;11.054;2022-11-23T01:42:38;7.75;;;3.40;;
19446;SDS011;9862;49.462;11.054;2022-11-23T01:45:27;6.18;;;3.08;;
19446;SDS011;9862;49.462;11.054;2022-11-23T01:48:00;8.32;;;3.22;;
19446;SDS011;9862;49.462;11.054;2022-11-23T01:50:29;7.22;;;3.20;;
19446;SDS011;9862;49.462;11.054;2022-11-23T01:52:58;7.85;;;3.20;;
19446;SDS011;9862;49.462;11.054;2022-11-23T01:55:25;7.47;;;3.22;;
19446;SDS011;9862;49.462;11.054;2022-11-23T01:57:53;11.05;;;3.50;;
19446;SDS011;9862;49.462;11.054;2022-11-23T02:00:20;4.63;;;3.45;;
19446;SDS011;9862;49.462;11.054;2022-11-23T02:02:49;7.90;;;3.75;;
19446;SDS011;9862;49.462;11.054;2022-11-23T02:05:24;6.43;;;3.38;;
19446;SDS011;9862;49.462;11.054;2022-11-23T02:07:55;6.32;;;3.20;;
19446;SDS011;9862;49.462;11.054;2022-11-23T02:10:24;9.55;;;3.72;;
19446;SDS011;9862;49.462;11.054;2022-11-23T02:12:51;10.13;;;3.40;;
19446;SDS011;9862;49.462;11.054;2022-11-23T02:15:19;5.15;;;3.42;;
19446;SDS011;9862;49.462;11.054;2022-11-23T02:17:46;9.30;;;3.50;;
19446;SDS011;9862;49.462;11.054;2022-11-23T02:20:14;6.68;;;3.95;;
19446;SDS011;9862;49.462;11.054;2022-11-23T02:22:53;7.65;;;4.30;;
19446;SDS011;9862;49.462;11.054;2022-11-23T02:25:29;6.53;;;3.45;;
19446;SDS011;9862;49.462;11.054;2022-11-23T02:28:03;7.10;;;2.97;;
19446;SDS011;9862;49.462;11.054;2022-11-23T02:30:31;9.88;;;3.78;;
19446;SDS011;9862;49.462;11.054;2022-11-23T02:33:02;9.23;;;3.75;;
19446;SDS011;9862;49.462;11.054;2022-11-23T02:35:30;8.60;;;4.38;;
19446;SDS011;9862;49.462;11.054;2022-11-23T02:37:57;9.60;;;4.18;;
19446;SDS011;9862;49.462;11.054;2022-11-23T02:40:27;11.30;;;4.20;;
19446;SDS011;9862;49.462;11.054;2022-11-23T02:42:55;8.27;;;4.05;;
19446;SDS011;9862;49.462;11.054;2022-11-23T02:45:25;6.50;;;4.07;;
19446;SDS011;9862;49.462;11.054;2022-11-23T02:47:56;6.50;;;3.45;;
19446;SDS011;9862;49.462;11.054;2022-11-23T02:50:23;7.18;;;3.38;;
19446;SDS011;9862;49.462;11.054;2022-11-23T02:52:50;6.55;;;3.70;;
19446;SDS011;9862;49.462;11.054;2022-11-23T02:55:19;8.13;;;3.40;;
19446;SDS011;9862;49.462;11.054;2022-11-23T02:57:46;7.25;;;3.17;;
19446;SDS011;9862;49.462;11.054;2022-11-23T03:00:13;8.35;;;3.22;;
19446;SDS011;9862;49.462;11.054;2022-11-23T03:02:42;6.57;;;3.13;;
19446;SDS011;9862;49.462;11.054;2022-11-23T03:05:09;7.53;;;3.20;;
19446;SDS011;9862;49.462;11.054;2022-11-23T03:07:35;5.10;;;3.30;;
19446;SDS011;9862;49.462;11.054;2022-11-23T03:10:02;6.18;;;2.90;;
19446;SDS011;9862;49.462;11.054;2022-11-23T03:12:30;6.00;;;3.88;;
19446;SDS011;9862;49.462;11.054;2022-11-23T03:14:57;6.00;;;3.70;;
19446;SDS011;9862;49.462;11.054;2022-11-23T03:17:24;7.53;;;3.72;;
19446;SDS011;9862;49.462;11.054;2022-11-23T03:19:53;7.22;;;3.40;;
19446;SDS011;9862;49.462;11.054;2022-11-23T03:22:20;7.90;;;3.40;;
19446;SDS011;9862;49.462;11.054;2022-11-23T03:24:46;6.82;;;3.15;;
19446;SDS011;9862;49.462;11.054;2022-11-23T03:27:13;9.02;;;4.00;;
19446;SDS011;9862;49.462;11.054;2022-11-23T03:29:43;6.18;;;2.90;;
19446;SDS011;9862;49.462;11.054;2022-11-23T03:32:09;6.93;;;3.03;;
19446;SDS011;9862;49.462;11.054;2022-11-23T03:34:39;8.55;;;5.22;;
19446;SDS011;9862;49.462;11.054;2022-11-23T03:37:07;9.55;;;5.25;;
19446;SDS011;9862;49.462;11.054;2022-11-23T03:39:34;23.55;;;11.05;;
19446;SDS011;9862;49.462;11.054;2022-11-23T03:42:00;20.63;;;10.02;;
19446;SDS011;9862;49.462;11.054;2022-11-23T03:44:27;16.85;;;7.63;;
19446;SDS011;9862;49.462;11.054;2022-11-23T03:46:56;10.75;;;4.03;;
19446;SDS011;9862;49.462;11.054;2022-11-23T03:49:23;8.70;;;3.65;;
19446;SDS011;9862;49.462;11.054;2022-11-23T03:51:50;8.07;;;3.30;;
19446;SDS011;9862;49.462;11.054;2022-11-23T03:54:18;16.67;;;9.55;;
19446;SDS011;9862;49.462;11.054;2022-11-23T03:56:44;23.20;;;10.73;;
19446;SDS011;9862;49.462;11.054;2022-11-23T03:59:11;15.95;;;9.80;;
19446;SDS011;9862;49.462;11.054;2022-11-23T04:01:38;11.40;;;6.45;;
19446;SDS011;9862;49.462;11.054;2022-11-23T04:04:04;10.30;;;5.93;;
19446;SDS011;9862;49.462;11.054;2022-11-23T04:06:31;12.45;;;6.28;;
19446;SDS011;9862;49.462;11.054;2022-11-23T04:08:58;11.70;;;6.25;;
19446;SDS011;9862;49.462;11.054;2022-11-23T04:11:26;16.65;;;9.48;;
19446;SDS011;9862;49.462;11.054;2022-11-23T04:13:53;15.82;;;9.20;;
19446;SDS011;9862;49.462;11.054;2022-11-23T04:16:19;11.88;;;5.93;;
19446;SDS011;9862;49.462;11.054;2022-11-23T04:18:46;13.23;;;6.35;;
19446;SDS011;9862;49.462;11.054;2022-11-23T04:21:12;10.50;;;5.28;;
19446;SDS011;9862;49.462;11.054;2022-11-23T04:23:39;17.55;;;9.52;;
19446;SDS011;9862;49.462;11.054;2022-11-23T04:26:06;15.50;;;7.70;;
19446;SDS011;9862;49.462;11.054;2022-11-23T04:28:34;9.52;;;6.38;;
19446;SDS011;9862;49.462;11.054;2022-11-23T04:31:00;9.45;;;5.53;;
19446;SDS011;9862;49.462;11.054;2022-11-23T04:33:28;12.45;;;6.80;;
19446;SDS011;9862;49.462;11.054;2022-11-23T04:35:55;8.07;;;4.20;;
19446;SDS011;9862;49.462;11.054;2022-11-23T04:38:22;14.65;;;7.10;;
19446;SDS011;9862;49.462;11.054;2022-11-23T04:40:49;10.75;;;5.20;;
19446;SDS011;9862;49.462;11.054;2022-11-23T04:43:15;9.32;;;5.20;;
19446;SDS011;9862;49.462;11.054;2022-11-23T04:45:46;7.72;;;4.30;;
19446;SDS011;9862;49.462;11.054;2022-11-23T04:48:12;11.48;;;3.80;;
19446;SDS011;9862;49.462;11.054;2022-11-23T04:50:39;5.50;;;3.53;;
19446;SDS011;9862;49.462;11.054;2022-11-23T04:53:06;6.65;;;3.15;;
19446;SDS011;9862;49.462;11.054;2022-11-23T04:55:33;6.80;;;3.60;;
19446;SDS011;9862;49.462;11.054;2022-11-23T04:58:00;11.63;;;6.03;;
19446;SDS011;9862;49.462;11.054;2022-11-23T05:00:26;12.85;;;5.30;;
19446;SDS011;9862;49.462;11.054;2022-11-23T05:02:57;9.93;;;4.28;;
19446;SDS011;9862;49.462;11.054;2022-11-23T05:05:24;7.20;;;5.00;;
19446;SDS011;9862;49.462;11.054;2022-11-23T05:07:51;12.93;;;5.07;;
19446;SDS011;9862;49.462;11.054;2022-11-23T05:10:17;7.38;;;4.13;;
19446;SDS011;9862;49.462;11.054;2022-11-23T05:12:44;11.25;;;4.65;;
19446;SDS011;9862;49.462;11.054;2022-11-23T05:15:11;8.77;;;4.10;;
19446;SDS011;9862;49.462;11.054;2022-11-23T05:17:38;7.32;;;4.13;;
19446;SDS011;9862;49.462;11.054;2022-11-23T05:20:07;6.60;;;3.28;;
19446;SDS011;9862;49.462;11.054;2022-11-23T05:22:34;7.55;;;3.75;;
19446;SDS011;9862;49.462;11.054;2022-11-23T05:25:01;6.88;;;3.30;;
19446;SDS011;9862;49.462;11.054;2022-11-23T05:27:27;5.82;;;3.60;;
19446;SDS011;9862;49.462;11.054;2022-11-23T05:29:54;7.63;;;3.67;;
19446;SDS011;9862;49.462;11.054;2022-11-23T05:32:20;10.82;;;4.40;;
19446;SDS011;9862;49.462;11.054;2022-11-23T05:34:47;8.43;;;3.75;;
19446;SDS011;9862;49.462;11.054;2022-11-23T05:37:15;5.03;;;3.50;;
19446;SDS011;9862;49.462;11.054;2022-11-23T05:39:42;6.35;;;3.53;;
19446;SDS011;9862;49.462;11.054;2022-11-23T05:42:08;6.60;;;3.80;;
19446;SDS011;9862;49.462;11.054;2022-11-23T05:44:35;7.18;;;3.50;;
19446;SDS011;9862;49.462;11.054;2022-11-23T05:47:02;9.05;;;3.47;;
19446;SDS011;9862;49.462;11.054;2022-11-23T05:49:28;6.95;;;3.40;;
19446;SDS011;9862;49.462;11.054;2022-11-23T05:51:55;8.77;;;3.15;;
19446;SDS011;9862;49.462;11.054;2022-11-23T05:54:23;7.85;;;3.55;;
19446;SDS011;9862;49.462;11.054;2022-11-23T05:56:50;34.90;;;17.45;;
19446;SDS011;9862;49.462;11.054;2022-11-23T05:59:19;120.15;;;53.63;;
19446;SDS011;9862;49.462;11.054;2022-11-23T06:01:46;69.10;;;33.38;;
19446;SDS011;9862;49.462;11.054;2022-11-23T06:04:12;19.77;;;10.40;;
19446;SDS011;9862;49.462;11.054;2022-11-23T06:06:42;8.25;;;4.28;;
19446;SDS011;9862;49.462;11.054;2022-11-23T06:09:09;21.70;;;10.88;;
19446;SDS011;9862;49.462;11.054;2022-11-23T06:11:39;19.58;;;9.90;;
19446;SDS011;9862;49.462;11.054;2022-11-23T06:14:08;11.68;;;5.00;;
19446;SDS011;9862;49.462;11.054;2022-11-23T06:16:35;9.75;;;4.03;;
19446;SDS011;9862;49.462;11.054;2022-11-23T06:19:01;5.28;;;3.85;;
19446;SDS011;9862;49.462;11.054;2022-11-23T06:21:29;6.63;;;4.03;;
19446;SDS011;9862;49.462;11.054;2022-11-23T06:23:55;6.05;;;3.53;;
19446;SDS011;9862;49.462;11.054;2022-11-23T06:26:22;7.72;;;3.28;;
19446;SDS011;9862;49.462;11.054;2022-11-23T06:28:52;7.40;;;3.35;;
19446;SDS011;9862;49.462;11.054;2022-11-23T06:31:19;6.32;;;3.75;;
19446;SDS011;9862;49.462;11.054;2022-11-23T06:33:48;7.38;;;3.40;;
19446;SDS011;9862;49.462;11.054;2022-11-23T06:36:18;4.30;;;3.00;;
19446;SDS011;9862;49.462;11.054;2022-11-23T06:38:44;6.68;;;3.67;;
19446;SDS011;9862;49.462;11.054;2022-11-23T06:41:11;5.85;;;3.10;;
19446;SDS011;9862;49.462;11.054;2022-11-23T06:43:37;8.68;;;3.88;;
19446;SDS011;9862;49.462;11.054;2022-11-23T06:46:05;8.05;;;3.35;;
19446;SDS011;9862;49.462;11.054;2022-11-23T06:48:32;6.22;;;3.17;;
19446;SDS011;9862;49.462;11.054;2022-11-23T06:50:59;7.35;;;3.78;;
19446;SDS011;9862;49.462;11.054;2022-11-23T06:53:27;5.85;;;3.33;;
19446;SDS011;9862;49.462;11.054;2022-11-23T06:55:56;7.90;;;3.40;;
19446;SDS011;9862;49.462;11.054;2022-11-23T06:58:23;7.88;;;2.88;;
19446;SDS011;9862;49.462;11.054;2022-11-23T07:00:50;8.30;;;3.88;;
19446;SDS011;9862;49.462;11.054;2022-11-23T07:03:19;6.53;;;3.47;;
19446;SDS011;9862;49.462;11.054;2022-11-23T07:05:46;8.45;;;3.58;;
19446;SDS011;9862;49.462;11.054;2022-11-23T07:08:16;7.60;;;3.63;;
19446;SDS011;9862;49.462;11.054;2022-11-23T07:10:42;9.10;;;4.18;;
19446;SDS011;9862;49.462;11.054;2022-11-23T07:13:09;6.97;;;3.17;;
19446;SDS011;9862;49.462;11.054;2022-11-23T07:15:37;5.57;;;3.00;;
19446;SDS011;9862;49.462;11.054;2022-11-23T07:18:04;7.20;;;3.53;;
19446;SDS011;9862;49.462;11.054;2022-11-23T07:20:32;6.57;;;3.00;;
19446;SDS011;9862;49.462;11.054;2022-11-23T07:22:59;6.75;;;3.70;;
19446;SDS011;9862;49.462;11.054;2022-11-23T07:25:26;8.13;;;3.70;;
19446;SDS011;9862;49.462;11.054;2022-11-23T07:27:53;7.30;;;3.30;;
19446;SDS011;9862;49.462;11.054;2022-11-23T07:30:21;5.97;;;3.20;;
19446;SDS011;9862;49.462;11.054;2022-11-23T07:32:48;5.05;;;3.15;;
19446;SDS011;9862;49.462;11.054;2022-11-23T07:35:14;6.18;;;2.97;;
19446;SDS011;9862;49.462;11.054;2022-11-23T07:37:43;8.07;;;2.97;;
19446;SDS011;9862;49.462;11.054;2022-11-23T07:40:09;5.28;;;2.75;;
19446;SDS011;9862;49.462;11.054;2022-11-23T07:42:36;4.80;;;3.20;;
19446;SDS011;9862;49.462;11.054;2022-11-23T07:45:03;10.73;;;3.13;;
19446;SDS011;9862;49.462;11.054;2022-11-23T07:47:31;7.80;;;3.25;;
19446;SDS011;9862;49.462;11.054;2022-11-23T07:49:58;7.28;;;3.75;;
19446;SDS011;9862;49.462;11.054;2022-11-23T07:52:24;6.97;;;3.05;;
19446;SDS011;9862;49.462;11.054;2022-11-23T07:54:52;7.78;;;2.92;;
19446;SDS011;9862;49.462;11.054;2022-11-23T07:57:21;5.65;;;3.40;;
19446;SDS011;9862;49.462;11.054;2022-11-23T07:59:48;9.35;;;3.33;;
19446;SDS011;9862;49.462;11.054;2022-11-23T08:02:15;8.32;;;3.60;;
19446;SDS011;9862;49.462;11.054;2022-11-23T08:04:41;11.85;;;3.78;;
19446;SDS011;9862;49.462;11.054;2022-11-23T08:07:08;8.15;;;3.33;;
19446;SDS011;9862;49.462;11.054;2022-11-23T08:09:34;6.80;;;3.55;;
19446;SDS011;9862;49.462;11.054;2022-11-23T08:12:02;6.55;;;3.72;;
19446;SDS011;9862;49.462;11.054;2022-11-23T08:14:29;8.82;;;4.00;;
19446;SDS011;9862;49.462;11.054;2022-11-23T08:16:56;7.57;;;3.63;;
19446;SDS011;9862;49.462;11.054;2022-11-23T08:19:23;5.70;;;3.08;;
19446;SDS011;9862;49.462;11.054;2022-11-23T08:21:50;6.03;;;3.67;;
19446;SDS011;9862;49.462;11.054;2022-11-23T08:24:19;11.82;;;4.10;;
19446;SDS011;9862;49.462;11.054;2022-11-23T08:26:45;6.65;;;3.22;;
19446;SDS011;9862;49.462;11.054;2022-11-23T08:29:13;7.78;;;3.50;;
19446;SDS011;9862;49.462;11.054;2022-11-23T08:31:40;6.82;;;4.03;;
19446;SDS011;9862;49.462;11.054;2022-11-23T08:34:07;9.00;;;3.75;;
19446;SDS011;9862;49.462;11.054;2022-11-23T08:36:34;6.57;;;3.90;;
19446;SDS011;9862;49.462;11.054;2022-11-23T08:39:02;8.80;;;3.67;;
19446;SDS011;9862;49.462;11.054;2022-11-23T08:41:28;7.93;;;3.50;;
19446;SDS011;9862;49.462;11.054;2022-11-23T08:43:55;6.25;;;3.72;;
19446;SDS011;9862;49.462;11.054;2022-11-23T08:46:23;6.47;;;3.65;;
19446;SDS011;9862;49.462;11.054;2022-11-23T08:48:49;5.18;;;2.83;;
19446;SDS011;9862;49.462;11.054;2022-11-23T08:51:16;8.55;;;3.72;;
19446;SDS011;9862;49.462;11.054;2022-11-23T08:53:46;7.13;;;3.55;;
19446;SDS011;9862;49.462;11.054;2022-11-23T08:56:13;9.93;;;4.15;;
19446;SDS011;9862;49.462;11.054;2022-11-23T08:58:40;7.72;;;3.88;;
19446;SDS011;9862;49.462;11.054;2022-11-23T09:01:07;7.18;;;3.25;;
19446;SDS011;9862;49.462;11.054;2022-11-23T09:03:35;6.10;;;2.97;;
19446;SDS011;9862;49.462;11.054;2022-11-23T09:06:02;7.25;;;3.60;;
19446;SDS011;9862;49.462;11.054;2022-11-23T09:08:29;6.22;;;3.40;;
19446;SDS011;9862;49.462;11.054;2022-11-23T09:10:58;10.75;;;4.07;;
19446;SDS011;9862;49.462;11.054;2022-11-23T09:13:25;6.43;;;3.42;;
19446;SDS011;9862;49.462;11.054;2022-11-23T09:15:55;8.35;;;3.72;;
19446;SDS011;9862;49.462;11.054;2022-11-23T09:18:22;9.02;;;4.10;;
19446;SDS011;9862;49.462;11.054;2022-11-23T09:20:50;6.65;;;3.25;;
19446;SDS011;9862;49.462;11.054;2022-11-23T09:23:17;6.53;;;3.40;;
19446;SDS011;9862;49.462;11.054;2022-11-23T09:25:43;7.65;;;3.88;;
19446;SDS011;9862;49.462;11.054;2022-11-23T09:28:12;8.25;;;4.25;;
19446;SDS011;9862;49.462;11.054;2022-11-23T09:30:39;5.70;;;3.35;;
19446;SDS011;9862;49.462;11.054;2022-11-23T09:33:07;7.93;;;3.60;;
19446;SDS011;9862;49.462;11.054;2022-11-23T09:35:33;8.13;;;3.75;;
19446;SDS011;9862;49.462;11.054;2022-11-23T09:38:02;6.05;;;3.33;;
19446;SDS011;9862;49.462;11.054;2022-11-23T09:40:30;8.13;;;3.63;;
19446;SDS011;9862;49.462;11.054;2022-11-23T09:43:07;6.60;;;3.55;;
19446;SDS011;9862;49.462;11.054;2022-11-23T09:45:43;4.20;;;3.25;;
19446;SDS011;9862;49.462;11.054;2022-11-23T09:51:13;6.80;;;4.18;;
19446;SDS011;9862;49.462;11.054;2022-11-23T09:53:45;5.97;;;3.47;;
19446;SDS011;9862;49.462;11.054;2022-11-23T09:56:19;6.93;;;3.28;;
19446;SDS011;9862;49.462;11.054;2022-11-23T09:58:48;7.35;;;3.47;;
19446;SDS011;9862;49.462;11.054;2022-11-23T10:01:19;5.57;;;3.55;;
19446;SDS011;9862;49.462;11.054;2022-11-23T10:03:47;9.60;;;4.13;;
19446;SDS011;9862;49.462;11.054;2022-11-23T10:06:16;7.35;;;3.83;;
19446;SDS011;9862;49.462;11.054;2022-11-23T10:08:49;8.05;;;4.18;;
19446;SDS011;9862;49.462;11.054;2022-11-23T10:11:57;9.45;;;3.97;;
19446;SDS011;9862;49.462;11.054;2022-11-23T10:14:46;11.90;;;3.80;;
19446;SDS011;9862;49.462;11.054;2022-11-23T10:17:30;7.15;;;3.17;;
19446;SDS011;9862;49.462;11.054;2022-11-23T10:20:18;6.03;;;3.50;;
19446;SDS011;9862;49.462;11.054;2022-11-23T10:22:55;8.23;;;3.72;;
19446;SDS011;9862;49.462;11.054;2022-11-23T10:25:25;8.55;;;3.72;;
19446;SDS011;9862;49.462;11.054;2022-11-23T10:27:59;9.20;;;3.75;;
19446;SDS011;9862;49.462;11.054;2022-11-23T10:30:32;13.35;;;4.00;;
19446;SDS011;9862;49.462;11.054;2022-11-23T10:33:04;5.72;;;3.50;;
19446;SDS011;9862;49.462;11.054;2022-11-23T10:35:41;5.78;;;3.20;;
19446;SDS011;9862;49.462;11.054;2022-11-23T10:38:08;8.75;;;4.40;;
19446;SDS011;9862;49.462;11.054;2022-11-23T10:40:38;54.70;;;27.15;;
19446;SDS011;9862;49.462;11.054;2022-11-23T10:43:11;8.10;;;5.30;;
19446;SDS011;9862;49.462;11.054;2022-11-23T10:45:42;8.15;;;3.10;;
19446;SDS011;9862;49.462;11.054;2022-11-23T10:48:09;9.35;;;2.83;;
19446;SDS011;9862;49.462;11.054;2022-11-23T10:50:36;7.20;;;3.10;;
19446;SDS011;9862;49.462;11.054;2022-11-23T10:53:16;6.13;;;3.13;;
19446;SDS011;9862;49.462;11.054;2022-11-23T10:55:48;7.97;;;3.30;;
19446;SDS011;9862;49.462;11.054;2022-11-23T10:58:25;8.40;;;3.67;;
19446;SDS011;9862;49.462;11.054;2022-11-23T11:00:57;4.78;;;3.08;;
19446;SDS011;9862;49.462;11.054;2022-11-23T11:03:25;5.95;;;3.53;;
19446;SDS011;9862;49.462;11.054;2022-11-23T11:05:56;6.93;;;3.50;;
19446;SDS011;9862;49.462;11.054;2022-11-23T11:08:25;5.15;;;3.38;;
19446;SDS011;9862;49.462;11.054;2022-11-23T11:11:00;5.97;;;2.85;;
19446;SDS011;9862;49.462;11.054;2022-11-23T11:13:30;7.05;;;3.10;;
19446;SDS011;9862;49.462;11.054;2022-11-23T11:16:04;7.85;;;4.07;;
19446;SDS011;9862;49.462;11.054;2022-11-23T11:18:42;6.13;;;3.30;;
19446;SDS011;9862;49.462;11.054;2022-11-23T11:21:16;5.55;;;2.92;;
19446;SDS011;9862;49.462;11.054;2022-11-23T11:23:49;8.20;;;3.50;;
19446;SDS011;9862;49.462;11.054;2022-11-23T11:26:22;13.57;;;6.05;;
19446;SDS011;9862;49.462;11.054;2022-11-23T11:28:54;12.02;;;5.75;;
19446;SDS011;9862;49.462;11.054;2022-11-23T11:31:31;8.43;;;4.43;;
19446;SDS011;9862;49.462;11.054;2022-11-23T11:34:12;9.60;;;4.35;;
19446;SDS011;9862;49.462;11.054;2022-11-23T11:36:47;6.65;;;3.50;;
19446;SDS011;9862;49.462;11.054;2022-11-23T11:39:22;7.88;;;4.00;;
19446;SDS011;9862;49.462;11.054;2022-11-23T11:41:55;9.25;;;3.97;;
19446;SDS011;9862;49.462;11.054;2022-11-23T11:44:25;5.45;;;3.15;;
19446;SDS011;9862;49.462;11.054;2022-11-23T11:46:55;6.43;;;2.40;;
19446;SDS011;9862;49.462;11.054;2022-11-23T11:49:27;6.20;;;2.45;;
19446;SDS011;9862;49.462;11.054;2022-11-23T11:51:58;5.22;;;2.10;;
19446;SDS011;9862;49.462;11.054;2022-11-23T11:54:34;6.38;;;2.67;;
19446;SDS011;9862;49.462;11.054;2022-11-23T11:57:11;5.03;;;2.25;;
19446;SDS011;9862;49.462;11.054;2022-11-23T11:59:46;4.80;;;1.80;;
19446;SDS011;9862;49.462;11.054;2022-11-23T12:02:18;4.93;;;1.70;;
19446;SDS011;9862;49.462;11.054;2022-11-23T12:04:50;3.55;;;1.67;;
19446;SDS011;9862;49.462;11.054;2022-11-23T12:07:26;6.70;;;1.83;;
19446;SDS011;9862;49.462;11.054;2022-11-23T12:09:56;4.78;;;2.05;;
19446;SDS011;9862;49.462;11.054;2022-11-23T12:12:30;3.00;;;1.40;;
19446;SDS011;9862;49.462;11.054;2022-11-23T12:14:59;3.38;;;1.40;;
19446;SDS011;9862;49.462;11.054;2022-11-23T12:17:35;4.15;;;1.77;;
19446;SDS011;9862;49.462;11.054;2022-11-23T12:20:15;5.85;;;2.15;;
19446;SDS011;9862;49.462;11.054;2022-11-23T12:22:53;7.10;;;1.92;;
19446;SDS011;9862;49.462;11.054;2022-11-23T12:25:30;5.30;;;2.03;;
19446;SDS011;9862;49.462;11.054;2022-11-23T12:28:12;6.32;;;1.80;;
19446;SDS011;9862;49.462;11.054;2022-11-23T12:30:50;4.35;;;2.38;;
19446;SDS011;9862;49.462;11.054;2022-11-23T12:36:29;7.30;;;1.88;;
19446;SDS011;9862;49.462;11.054;2022-11-23T12:39:12;7.03;;;2.45;;
19446;SDS011;9862;49.462;11.054;2022-11-23T12:41:51;3.58;;;1.80;;
19446;SDS011;9862;49.462;11.054;2022-11-23T12:44:29;3.30;;;1.83;;
19446;SDS011;9862;49.462;11.054;2022-11-23T12:47:11;9.25;;;4.00;;
19446;SDS011;9862;49.462;11.054;2022-11-23T12:49:48;8.77;;;3.55;;
19446;SDS011;9862;49.462;11.054;2022-11-23T12:55:13;4.80;;;1.85;;
19446;SDS011;9862;49.462;11.054;2022-11-23T12:57:45;5.15;;;1.92;;
19446;SDS011;9862;49.462;11.054;2022-11-23T13:00:19;6.07;;;1.88;;
19446;SDS011;9862;49.462;11.054;2022-11-23T13:02:55;5.88;;;2.25;;
19446;SDS011;9862;49.462;11.054;2022-11-23T13:05:53;4.55;;;2.20;;
19446;SDS011;9862;49.462;11.054;2022-11-23T13:08:49;7.32;;;3.40;;
19446;SDS011;9862;49.462;11.054;2022-11-23T13:11:33;6.00;;;2.55;;
19446;SDS011;9862;49.462;11.054;2022-11-23T13:14:12;4.72;;;2.45;;
19446;SDS011;9862;49.462;11.054;2022-11-23T13:16:54;3.58;;;1.98;;
19446;SDS011;9862;49.462;11.054;2022-11-23T13:19:40;6.78;;;2.17;;
19446;SDS011;9862;49.462;11.054;2022-11-23T13:22:19;7.40;;;2.85;;
19446;SDS011;9862;49.462;11.054;2022-11-23T13:25:01;4.82;;;2.20;;
19446;SDS011;9862;49.462;11.054;2022-11-23T13:27:41;5.18;;;2.30;;
19446;SDS011;9862;49.462;11.054;2022-11-23T13:30:22;4.35;;;2.78;;
19446;SDS011;9862;49.462;11.054;2022-11-23T13:32:56;3.92;;;2.28;;
19446;SDS011;9862;49.462;11.054;2022-11-23T13:38:21;7.85;;;2.47;;
19446;SDS011;9862;49.462;11.054;2022-11-23T13:40:50;5.72;;;2.40;;
19446;SDS011;9862;49.462;11.054;2022-11-23T13:43:18;4.40;;;2.13;;
19446;SDS011;9862;49.462;11.054;2022-11-23T13:48:47;7.03;;;2.40;;
19446;SDS011;9862;49.462;11.054;2022-11-23T13:51:21;7.13;;;2.20;;
19446;SDS011;9862;49.462;11.054;2022-11-23T13:53:50;4.78;;;1.90;;
19446;SDS011;9862;49.462;11.054;2022-11-23T13:56:24;4.88;;;1.75;;
19446;SDS011;9862;49.462;11.054;2022-11-23T13:58:56;5.57;;;2.25;;
19446;SDS011;9862;49.462;11.054;2022-11-23T14:04:26;11.90;;;6.80;;
19446;SDS011;9862;49.462;11.054;2022-11-23T14:06:57;5.50;;;2.90;;
19446;SDS011;9862;49.462;11.054;2022-11-23T14:09:29;5.65;;;2.92;;
19446;SDS011;9862;49.462;11.054;2022-11-23T14:12:02;4.45;;;3.03;;
19446;SDS011;9862;49.462;11.054;2022-11-23T14:14:43;5.60;;;2.63;;
19446;SDS011;9862;49.462;11.054;2022-11-23T14:17:28;4.50;;;2.00;;
19446;SDS011;9862;49.462;11.054;2022-11-23T14:20:30;8.40;;;2.85;;
19446;SDS011;9862;49.462;11.054;2022-11-23T14:23:16;6.30;;;2.38;;
19446;SDS011;9862;49.462;11.054;2022-11-23T14:25:56;5.18;;;3.10;;
19446;SDS011;9862;49.462;11.054;2022-11-23T14:28:38;6.72;;;2.92;;
19446;SDS011;9862;49.462;11.054;2022-11-23T14:31:19;6.25;;;2.92;;
19446;SDS011;9862;49.462;11.054;2022-11-23T14:33:54;6.63;;;2.53;;
19446;SDS011;9862;49.462;11.054;2022-11-23T14:36:34;9.32;;;5.88;;
19446;SDS011;9862;49.462;11.054;2022-11-23T14:42:17;6.75;;;3.65;;
19446;SDS011;9862;49.462;11.054;2022-11-23T14:44:46;5.28;;;2.83;;
19446;SDS011;9862;49.462;11.054;2022-11-23T14:47:20;5.57;;;2.92;;
19446;SDS011;9862;49.462;11.054;2022-11-23T14:49:50;6.20;;;2.50;;
19446;SDS011;9862;49.462;11.054;2022-11-23T14:52:19;6.75;;;3.25;;
19446;SDS011;9862;49.462;11.054;2022-11-23T14:54:47;6.03;;;2.88;;
19446;SDS011;9862;49.462;11.054;2022-11-23T14:57:18;7.68;;;2.65;;
19446;SDS011;9862;49.462;11.054;2022-11-23T14:59:48;6.65;;;2.45;;
19446;SDS011;9862;49.462;11.054;2022-11-23T15:02:18;4.28;;;2.40;;
19446;SDS011;9862;49.462;11.054;2022-11-23T15:04:52;6.30;;;3.03;;
19446;SDS011;9862;49.462;11.054;2022-11-23T15:07:31;5.68;;;2.42;;
19446;SDS011;9862;49.462;11.054;2022-11-23T15:10:15;7.20;;;2.90;;
19446;SDS011;9862;49.462;11.054;2022-11-23T15:12:52;7.40;;;3.05;;
19446;SDS011;9862;49.462;11.054;2022-11-23T15:15:20;5.80;;;2.83;;
19446;SDS011;9862;49.462;11.054;2022-11-23T15:17:50;10.20;;;3.13;;
19446;SDS011;9862;49.462;11.054;2022-11-23T15:20:19;5.93;;;2.83;;
19446;SDS011;9862;49.462;11.054;2022-11-23T15:22:50;9.75;;;4.03;;
19446;SDS011;9862;49.462;11.054;2022-11-23T15:25:18;6.80;;;3.33;;